Hlavní strana
METAR-TAF:

METAR-TAF

Letiště :

Pointe-à-Pitre, Guadeloupe

zeměpisná šířka: 16-16N, zeměpisná délka: 061-31W, výška: 11 m

Aktuální stav počasí

Zpráva byla vytvořena před 32 minutami, v 05:30 UTC
vítr z různých směrů 2 kt
Teplota 22°C
Vlhkost vzduchu 88%
Tlak 1014 hPa
Viditelnost 10 km a více
Skoro jasno ve výšce 2100 ft

METAR: TFFR 230530Z AUTO VRB02KT 9999 FEW021 22/20 Q1014 TEMPO 4000 SHRA SCT018TCU

Čas: 02:02 (06:02 UTC)

Předpověď počasí

Zpráva byla vytvořena před 1 hodinou a 2 minutami, v 05:00 UTC
Předpověď platná od 23 v 06 UTC do 24 v 06 UTC
vítr z různých směrů 2 kt
Viditelnost 10 km a více
Polojasno ve výšce 3000 ft
Pravděpodobnost 30% :
Dočasný
od 23 v 07 UTC do 23 v 12 UTC
Viditelnost: 4000 m
Polojasno ve výšce 1800 ft, Vertikální cumulus.
dešťové přeháňky
Změna
od 23 v 12 UTC do 23 v 14 UTC
Východní vítr 10 kt

TAF: TFFR 230500Z 2306/2406 VRB02KT 9999 SCT030 PROB30 TEMPO 2307/2312 4000 SHRA SCT018TCU BECMG 2312/2314 09010KT

Stav a předpovědi počasí z více než 4 000 letišť (zprávy METAR a TAF).

Červené a žluté tečky na mapě představují dostupné meteorologické stanice.

Když kurzor umístíte na tečku, zobrazí se název stanice.

Pak kliknutím zobrazíte stav a předpověď počasí.

Chcete-li změnit mapu, kliknutím na zelené tlačítko se znaménkem +mapu přiblížíte, kliknutím na zelené tlačítko se znaménkem – mapu oddálíte a kliknutím na zelené šipky přejdete na sousední mapy.


METAR-TAF: